Time;durP1;ratioP1;P1;durP2;ratioP2;P2;SDS_P1;SDS_P2;PMS_P1;PMS_P2;Temp;Humidity;BMP_temperature;BMP_pressure;BME280_temperature;BME280_humidity;BME280_pressure;Samples;Min_cycle;Max_cycle;Signal;HPM_P1;HPM_P2
2023/12/26 00:00:14;;;;;;;12.80;2.73;;;11.70;99.90;;;;;;5012731;28;38119;-80
2023/12/26 00:02:51;;;;;;;14.68;2.70;;;11.70;99.90;;;;;;4990307;28;40357;-80
2023/12/26 00:05:35;;;;;;;13.95;2.50;;;11.70;99.90;;;;;;4965085;28;38468;-80
2023/12/26 00:08:08;;;;;;;13.27;2.60;;;11.70;99.90;;;;;;4969866;28;38324;-80
2023/12/26 00:10:50;;;;;;;11.90;2.70;;;11.70;99.90;;;;;;4995923;28;36636;-81
2023/12/26 00:13:45;;;;;;;13.13;2.40;;;11.70;99.90;;;;;;4994302;28;40322;-81
2023/12/26 00:16:17;;;;;;;14.75;2.78;;;11.70;99.90;;;;;;4958451;28;39683;-81
2023/12/26 00:18:46;;;;;;;10.68;2.72;;;11.70;99.90;;;;;;4970817;28;49321;-80
2023/12/26 00:21:25;;;;;;;13.27;2.30;;;11.70;99.90;;;;;;4980325;28;37734;-81
2023/12/26 00:24:15;;;;;;;10.38;2.20;;;11.70;99.90;;;;;;5010320;28;39346;-82
2023/12/26 00:27:18;;;;;;;12.20;2.28;;;11.80;99.90;;;;;;4989799;28;47616;-80
2023/12/26 00:29:52;;;;;;;9.57;2.03;;;11.70;99.90;;;;;;4986184;28;49173;-80
2023/12/26 00:32:24;;;;;;;19.17;2.67;;;11.70;99.90;;;;;;4953854;28;37553;-81
2023/12/26 00:34:58;;;;;;;15.57;2.80;;;11.80;99.90;;;;;;5011894;28;39720;-80
2023/12/26 00:37:36;;;;;;;15.50;3.20;;;11.80;99.90;;;;;;5014722;28;40239;-81
2023/12/26 00:40:09;;;;;;;18.20;3.30;;;11.80;99.90;;;;;;5006876;28;37708;-82
2023/12/26 00:42:40;;;;;;;13.98;3.55;;;11.70;99.90;;;;;;4986029;28;48761;-81
2023/12/26 00:45:27;;;;;;;17.17;2.53;;;11.70;99.90;;;;;;5001314;28;39538;-81
2023/12/26 00:48:14;;;;;;;17.98;3.92;;;11.80;99.90;;;;;;5009932;28;20043;-81
2023/12/26 00:50:42;;;;;;;23.63;3.40;;;11.80;99.90;;;;;;5035500;23;39522;-79
2023/12/26 00:53:09;;;;;;;19.33;3.70;;;11.80;99.90;;;;;;5018172;28;37060;-80
2023/12/26 00:55:35;;;;;;;29.60;3.80;;;11.80;99.90;;;;;;5029698;28;40325;-80
2023/12/26 00:58:09;;;;;;;24.38;3.67;;;11.80;99.90;;;;;;5017616;28;38541;-81
2023/12/26 01:00:35;;;;;;;23.58;3.95;;;11.80;99.90;;;;;;5013924;28;38529;-80
2023/12/26 01:03:12;;;;;;;25.40;4.35;;;11.80;99.90;;;;;;5019175;28;37126;-81
2023/12/26 01:05:38;;;;;;;24.27;4.00;;;11.80;99.90;;;;;;5017093;28;48230;-81
2023/12/26 01:08:05;;;;;;;26.85;4.22;;;11.80;99.90;;;;;;5017195;28;39940;-80
2023/12/26 01:10:33;;;;;;;33.00;4.97;;;11.80;99.90;;;;;;5032244;28;39619;-81
2023/12/26 01:12:59;;;;;;;28.42;4.18;;;11.80;99.90;;;;;;5014836;28;37204;-80
2023/12/26 01:15:35;;;;;;;24.13;3.80;;;11.80;99.90;;;;;;5034454;28;38765;-80
2023/12/26 01:18:06;;;;;;;30.77;4.05;;;11.80;99.90;;;;;;5017244;28;38573;-81
2023/12/26 01:20:32;;;;;;;20.70;3.25;;;11.80;99.90;;;;;;5033345;28;48044;-81
2023/12/26 01:22:59;;;;;;;32.78;4.82;;;11.80;99.90;;;;;;5057459;23;37036;-80
2023/12/26 01:25:26;;;;;;;20.33;4.07;;;11.80;99.90;;;;;;5017557;28;40125;-80
2023/12/26 01:27:59;;;;;;;28.33;4.00;;;11.80;99.90;;;;;;5034240;28;38341;-81
2023/12/26 01:30:25;;;;;;;24.38;3.10;;;11.80;99.90;;;;;;5015002;28;38382;-80
2023/12/26 01:32:51;;;;;;;33.80;4.38;;;11.80;99.90;;;;;;5023774;28;37331;-79
2023/12/26 01:35:17;;;;;;;28.30;4.05;;;11.80;99.90;;;;;;5017243;28;40050;-80
2023/12/26 01:37:57;;;;;;;24.20;4.28;;;11.80;99.90;;;;;;5017314;28;39720;-81
2023/12/26 01:40:29;;;;;;;29.85;4.03;;;11.80;99.90;;;;;;5006694;28;37923;-80
2023/12/26 01:43:07;;;;;;;21.23;3.13;;;11.80;99.90;;;;;;5013399;28;39090;-80
2023/12/26 01:45:33;;;;;;;26.92;3.97;;;11.80;99.90;;;;;;5004186;28;49212;-80
2023/12/26 01:48:04;;;;;;;29.35;3.67;;;11.80;99.90;;;;;;5017731;28;38630;-80
2023/12/26 01:50:37;;;;;;;26.83;4.30;;;11.80;99.90;;;;;;5011660;28;49046;-81
2023/12/26 01:53:04;;;;;;;29.30;4.50;;;11.80;99.90;;;;;;5012089;28;37344;-80
2023/12/26 01:55:43;;;;;;;30.40;3.80;;;11.80;99.90;;;;;;5017524;28;40155;-81
2023/12/26 01:58:10;;;;;;;24.85;3.63;;;11.80;99.90;;;;;;5033143;28;39964;-80
2023/12/26 02:05:50;;;;;;;17.03;2.93;;;11.80;99.90;;;;;;5301860;22;20031;-81
2023/12/26 02:10:54;;;;;;;18.70;2.78;;;11.80;99.90;;;;;;5365327;22;20035;-82
2023/12/26 02:13:22;;;;;;;21.17;2.83;;;11.70;99.90;;;;;;5016278;28;37558;-80
2023/12/26 02:15:55;;;;;;;12.25;2.17;;;11.80;99.90;;;;;;5392326;23;39311;-81
2023/12/26 02:21:21;;;;;;;13.55;2.33;;;11.80;99.90;;;;;;4117867;26;20051;-81
2023/12/26 02:24:04;;;;;;;18.40;2.15;;;11.80;99.90;;;;;;4983003;28;48963;-82
2023/12/26 02:31:48;;;;;;;9.53;1.73;;;11.60;99.90;;;;;;5377359;22;20031;-82
2023/12/26 02:34:17;;;;;;;17.30;2.80;;;11.50;99.90;;;;;;4979469;28;37213;-82
2023/12/26 02:36:45;;;;;;;12.30;1.60;;;11.60;99.90;;;;;;4991648;28;39439;-81
2023/12/26 02:39:18;;;;;;;12.97;1.60;;;11.60;99.90;;;;;;4989543;28;37521;-82
2023/12/26 02:41:45;;;;;;;10.87;1.57;;;11.60;99.90;;;;;;4994815;28;37614;-81
2023/12/26 02:44:12;;;;;;;8.67;1.63;;;11.50;99.90;;;;;;4993444;28;36202;-82
2023/12/26 02:46:39;;;;;;;7.30;1.50;;;11.60;99.90;;;;;;5002038;28;39068;-82
2023/12/26 02:49:17;;;;;;;8.37;1.30;;;11.50;99.90;;;;;;4993571;28;38577;-82
2023/12/26 02:51:44;;;;;;;15.57;2.10;;;11.50;99.90;;;;;;4998889;28;37716;-81
2023/12/26 02:56:42;;;;;;;11.93;2.27;;;11.50;99.90;;;;;;5008651;28;20031;-81
2023/12/26 02:59:09;;;;;;;7.60;1.50;;;11.40;99.90;;;;;;5015472;28;37668;-81
2023/12/26 03:01:39;;;;;;;9.47;1.67;;;11.40;99.90;;;;;;5014597;28;38462;-81
2023/12/26 03:04:12;;;;;;;8.33;1.53;;;11.40;99.90;;;;;;5014173;28;36142;-80
2023/12/26 03:06:41;;;;;;;;;;;11.30;99.90;;;;;;5012565;28;39300;-81
2023/12/26 03:09:08;;;;;;;12.30;1.77;;;11.30;99.90;;;;;;5018153;28;39033;-81
2023/12/26 03:11:35;;;;;;;18.10;2.70;;;11.30;99.90;;;;;;5008347;28;38289;-81
2023/12/26 03:14:04;;;;;;;10.93;1.83;;;11.40;99.90;;;;;;5011089;28;37711;-81
2023/12/26 03:16:30;;;;;;;15.77;2.67;;;11.40;99.90;;;;;;5012656;28;39659;-80
2023/12/26 03:19:00;;;;;;;13.37;2.37;;;11.40;99.90;;;;;;5015435;28;38344;-82
2023/12/26 03:21:36;;;;;;;13.17;2.13;;;11.30;99.90;;;;;;5014648;28;38595;-82
2023/12/26 03:24:04;;;;;;;12.73;2.00;;;11.30;99.90;;;;;;5013996;28;38570;-80
2023/12/26 03:26:32;;;;;;;11.17;2.03;;;11.30;99.90;;;;;;5005401;28;39113;-82
2023/12/26 03:28:58;;;;;;;13.27;2.13;;;11.20;99.90;;;;;;5015734;28;38309;-81
2023/12/26 03:31:31;;;;;;;25.00;2.37;;;11.20;99.90;;;;;;5015397;28;38079;-82
2023/12/26 03:33:57;;;;;;;16.65;2.40;;;11.10;99.90;;;;;;5021606;28;37213;-81
2023/12/26 03:36:24;;;;;;;17.70;2.53;;;11.10;99.90;;;;;;5014198;28;40114;-81
2023/12/26 03:38:55;;;;;;;11.87;2.40;;;11.10;99.90;;;;;;5014024;28;38769;-83
2023/12/26 03:41:22;;;;;;;15.88;2.45;;;11.00;99.90;;;;;;5000590;28;36710;-82
2023/12/26 03:43:48;;;;;;;11.90;2.20;;;11.00;99.90;;;;;;5013774;28;37290;-82
2023/12/26 03:46:15;;;;;;;10.47;2.00;;;10.90;99.90;;;;;;5014185;28;38520;-81
2023/12/26 03:48:49;;;;;;;17.20;2.23;;;10.90;99.90;;;;;;5007023;28;39135;-81
2023/12/26 03:51:16;;;;;;;14.97;2.10;;;10.80;99.90;;;;;;5009849;28;38125;-82
2023/12/26 03:53:47;;;;;;;17.20;2.13;;;10.80;99.90;;;;;;5003909;28;37230;-81
2023/12/26 03:56:33;;;;;;;10.10;1.80;;;10.70;99.90;;;;;;5001221;28;39115;-80
2023/12/26 03:59:00;;;;;;;12.53;1.77;;;10.60;99.90;;;;;;5045277;28;38702;-82
2023/12/26 04:04:04;;;;;;;11.03;1.57;;;10.70;99.90;;;;;;5405821;22;20053;-82
2023/12/26 04:06:30;;;;;;;12.03;1.80;;;10.60;99.90;;;;;;5014374;28;38640;-82
2023/12/26 04:09:09;;;;;;;8.77;1.40;;;10.60;99.90;;;;;;5003877;28;38586;-81
2023/12/26 04:11:36;;;;;;;18.67;1.77;;;10.50;99.90;;;;;;5015550;28;48883;-83
2023/12/26 04:14:27;;;;;;;13.50;2.20;;;10.40;99.90;;;;;;5015475;28;38135;-81
2023/12/26 04:17:04;;;;;;;12.20;1.63;;;10.30;99.90;;;;;;5019265;28;38770;-81
2023/12/26 04:19:35;;;;;;;12.40;1.70;;;10.40;99.90;;;;;;5034109;28;48861;-81
2023/12/26 04:22:01;;;;;;;7.53;1.80;;;10.30;99.90;;;;;;5032809;28;38267;-82
2023/12/26 04:24:59;;;;;;;14.50;2.93;;;10.20;99.90;;;;;;5017708;28;48178;-82
2023/12/26 04:27:27;;;;;;;16.10;2.40;;;10.10;99.90;;;;;;5029056;28;39926;-82
2023/12/26 04:30:00;;;;;;;15.10;2.40;;;10.10;99.90;;;;;;5018089;28;38353;-82
2023/12/26 04:33:05;;;;;;;11.40;1.70;;;10.10;99.90;;;;;;5017678;28;38433;-81
2023/12/26 04:35:32;;;;;;;14.80;2.20;;;10.00;99.90;;;;;;5589851;22;48326;-82
2023/12/26 04:38:18;;;;;;;12.87;2.27;;;10.00;99.90;;;;;;5034001;28;39230;-82
2023/12/26 04:40:46;;;;;;;20.23;3.50;;;10.00;99.90;;;;;;5027184;28;48138;-81
2023/12/26 04:43:18;;;;;;;15.23;2.00;;;9.90;99.90;;;;;;5037539;28;38548;-82
2023/12/26 04:46:36;;;;;;;14.95;2.17;;;9.90;99.90;;;;;;5019259;28;37568;-82
2023/12/26 04:49:03;;;;;;;12.63;1.73;;;9.90;99.90;;;;;;5029280;28;48688;-82
2023/12/26 04:51:58;;;;;;;10.60;1.90;;;9.90;99.90;;;;;;5037971;28;38969;-82
2023/12/26 04:54:32;;;;;;;9.47;1.80;;;10.00;99.90;;;;;;5018881;28;37622;-82
2023/12/26 04:57:45;;;;;;;11.37;1.70;;;10.20;99.90;;;;;;5039350;28;37514;-81
2023/12/26 05:00:38;;;;;;;9.93;1.50;;;10.30;99.90;;;;;;5047165;28;48764;-81
2023/12/26 05:03:36;;;;;;;8.75;1.42;;;10.40;89.90;;;;;;5033009;28;48425;-82
2023/12/26 05:06:08;;;;;;;12.00;2.07;;;10.50;58.50;;;;;;5035698;28;37938;-82
2023/12/26 05:08:47;;;;;;;15.93;1.80;;;10.50;67.20;;;;;;5036855;28;36696;-83
2023/12/26 05:11:26;;;;;;;14.77;1.57;;;10.50;67.80;;;;;;5036965;28;38647;-82
2023/12/26 05:14:14;;;;;;;11.57;1.97;;;10.40;90.40;;;;;;5019724;28;38956;-82
2023/12/26 05:16:55;;;;;;;17.63;2.37;;;10.30;96.20;;;;;;5020084;28;48396;-82
2023/12/26 05:19:53;;;;;;;11.40;2.00;;;10.10;99.90;;;;;;5028501;28;37190;-82
2023/12/26 05:22:39;;;;;;;9.27;1.33;;;10.00;99.90;;;;;;5037151;28;40052;-81
2023/12/26 05:28:31;;;;;;;15.93;2.40;;;9.90;99.90;;;;;;5029155;28;50111;-82
2023/12/26 05:31:41;;;;;;;12.47;1.77;;;9.90;99.90;;;;;;5037560;28;37696;-82
2023/12/26 05:34:11;;;;;;;11.33;1.87;;;9.90;99.90;;;;;;5376165;22;48347;-82
2023/12/26 05:36:50;;;;;;;10.73;2.13;;;9.90;99.90;;;;;;4999607;28;38853;-81
2023/12/26 05:39:41;;;;;;;17.70;2.03;;;9.80;99.90;;;;;;4999447;28;37785;-81
2023/12/26 05:45:37;;;;;;;11.73;1.63;;;9.80;99.90;;;;;;4999988;28;50575;-82
2023/12/26 05:50:35;;;;;;;20.03;1.83;;;9.70;99.90;;;;;;5569204;22;20054;-82
2023/12/26 05:55:52;;;;;;;11.70;1.63;;;9.60;99.90;;;;;;5048325;22;20041;-81
2023/12/26 05:58:18;;;;;;;11.73;1.70;;;9.60;99.90;;;;;;4997209;28;38360;-81
2023/12/26 06:00:45;;;;;;;16.07;2.40;;;9.60;99.90;;;;;;5000587;28;37822;-82
2023/12/26 06:03:11;;;;;;;11.80;2.17;;;9.60;99.90;;;;;;5015826;28;37661;-81
2023/12/26 06:05:48;;;;;;;14.47;2.03;;;9.60;99.90;;;;;;5016724;28;38807;-81
2023/12/26 06:08:15;;;;;;;17.83;2.73;;;9.60;99.90;;;;;;5022274;28;39150;-82
2023/12/26 06:10:42;;;;;;;15.20;2.63;;;9.60;99.90;;;;;;5013879;28;38352;-82
2023/12/26 06:13:09;;;;;;;15.37;2.40;;;9.60;99.90;;;;;;5015228;28;37332;-81
2023/12/26 06:15:35;;;;;;;19.33;3.03;;;9.60;99.90;;;;;;5024328;28;39307;-81
2023/12/26 06:18:08;;;;;;;10.27;2.10;;;9.70;99.90;;;;;;5027845;28;38764;-82
2023/12/26 06:20:35;;;;;;;20.77;2.53;;;9.70;99.90;;;;;;5017151;28;48068;-81
2023/12/26 06:23:02;;;;;;;12.43;2.13;;;9.70;99.90;;;;;;5085124;23;37839;-82
2023/12/26 06:25:29;;;;;;;17.93;2.60;;;9.70;99.90;;;;;;5033421;28;48430;-82
2023/12/26 06:28:00;;;;;;;11.43;1.67;;;9.70;99.90;;;;;;5034243;28;38880;-82
2023/12/26 06:30:27;;;;;;;16.10;2.23;;;9.70;99.90;;;;;;5029618;28;46920;-81
2023/12/26 06:32:54;;;;;;;18.23;3.03;;;9.60;99.90;;;;;;5032413;28;37464;-81
2023/12/26 06:35:20;;;;;;;12.67;2.60;;;9.70;99.90;;;;;;5035721;28;37646;-81
2023/12/26 06:37:46;;;;;;;14.43;3.20;;;9.70;99.90;;;;;;5033622;28;40052;-82
2023/12/26 06:40:20;;;;;;;17.73;2.80;;;9.80;99.90;;;;;;5035449;28;38339;-81
2023/12/26 06:42:46;;;;;;;14.67;2.37;;;9.70;99.90;;;;;;5033762;28;38102;-80
2023/12/26 06:45:13;;;;;;;18.60;2.70;;;9.70;99.90;;;;;;5036845;28;40051;-81
2023/12/26 06:47:40;;;;;;;12.20;1.80;;;9.60;99.90;;;;;;5032981;28;38386;-82
2023/12/26 06:50:06;;;;;;;14.17;2.63;;;9.70;99.90;;;;;;5041403;28;37319;-81
2023/12/26 06:52:33;;;;;;;18.27;3.50;;;9.70;99.90;;;;;;5036107;28;36953;-82
2023/12/26 06:54:59;;;;;;;18.00;2.30;;;9.80;99.90;;;;;;5040101;28;39281;-82
2023/12/26 06:57:25;;;;;;;15.47;2.17;;;9.80;99.90;;;;;;5033912;28;38596;-82
2023/12/26 06:59:54;;;;;;;9.57;1.53;;;9.80;99.90;;;;;;5031447;28;38580;-81
2023/12/26 07:02:21;;;;;;;14.93;2.50;;;9.80;99.90;;;;;;5033152;28;37463;-81
2023/12/26 07:04:47;;;;;;;11.23;2.40;;;9.90;99.90;;;;;;5024935;28;39906;-82
2023/12/26 07:07:45;;;;;;;13.33;2.70;;;10.00;99.90;;;;;;5031848;28;38083;-82
2023/12/26 07:10:24;;;;;;;13.60;2.17;;;10.00;99.90;;;;;;5032094;28;38458;-82
2023/12/26 07:12:54;;;;;;;15.43;2.30;;;10.00;99.90;;;;;;5019732;28;35946;-81
2023/12/26 07:15:28;;;;;;;15.50;2.57;;;10.10;99.90;;;;;;5029184;28;38934;-82
2023/12/26 07:17:57;;;;;;;15.07;2.10;;;10.10;99.90;;;;;;5017915;28;37229;-81
2023/12/26 07:20:24;;;;;;;13.37;2.20;;;10.10;99.90;;;;;;5032799;28;36923;-82
2023/12/26 07:23:02;;;;;;;13.23;2.37;;;10.20;99.90;;;;;;5029127;28;37675;-82
2023/12/26 07:25:32;;;;;;;14.57;1.73;;;10.20;99.90;;;;;;5014104;28;48485;-82
2023/12/26 07:28:08;;;;;;;14.63;1.63;;;10.10;99.90;;;;;;5029087;28;38935;-82
2023/12/26 07:31:10;;;;;;;13.47;2.50;;;10.00;99.90;;;;;;5012645;28;49408;-82
2023/12/26 07:34:18;;;;;;;13.90;2.50;;;9.90;99.90;;;;;;5019110;28;50213;-81
2023/12/26 07:37:00;;;;;;;20.33;3.07;;;9.80;99.90;;;;;;4996292;28;49343;-82
2023/12/26 07:39:39;;;;;;;21.33;4.63;;;9.80;99.90;;;;;;4953631;28;39056;-81
2023/12/26 07:42:35;;;;;;;10.83;2.20;;;9.70;99.90;;;;;;5003930;28;38300;-82
2023/12/26 07:45:06;;;;;;;18.70;2.53;;;9.70;99.90;;;;;;5020802;28;37917;-83
2023/12/26 07:47:36;;;;;;;12.83;2.17;;;9.60;99.90;;;;;;5030721;28;49909;-81
2023/12/26 07:50:03;;;;;;;17.23;2.53;;;9.70;99.90;;;;;;5026619;28;39850;-81
2023/12/26 07:52:34;;;;;;;16.87;3.17;;;9.70;99.90;;;;;;5027498;28;50003;-82
2023/12/26 07:55:15;;;;;;;16.70;2.30;;;9.70;99.90;;;;;;5034927;28;37414;-81
2023/12/26 07:57:45;;;;;;;13.13;2.87;;;9.70;99.90;;;;;;5015118;28;48783;-81
2023/12/26 08:00:17;;;;;;;16.43;2.47;;;9.60;99.90;;;;;;5009127;28;38740;-81
2023/12/26 08:02:45;;;;;;;14.13;2.43;;;9.60;99.90;;;;;;5004853;28;38237;-81
2023/12/26 08:05:14;;;;;;;19.10;2.70;;;9.60;99.90;;;;;;5026964;28;37648;-81
2023/12/26 08:07:47;;;;;;;18.57;3.00;;;9.50;99.90;;;;;;5030566;28;39198;-81
2023/12/26 08:10:17;;;;;;;20.67;3.47;;;9.50;99.90;;;;;;5014429;28;39447;-81
2023/12/26 08:12:49;;;;;;;15.83;2.40;;;9.50;99.90;;;;;;5021656;28;39195;-81
2023/12/26 08:15:18;;;;;;;21.63;3.20;;;9.50;99.90;;;;;;5001465;28;38005;-81
2023/12/26 08:17:51;;;;;;;21.13;2.83;;;9.50;99.90;;;;;;5034666;28;40219;-81
2023/12/26 08:20:19;;;;;;;17.10;3.27;;;9.50;99.90;;;;;;5020201;28;38967;-82
2023/12/26 08:22:48;;;;;;;22.40;3.10;;;9.50;99.90;;;;;;5020592;28;38701;-82
2023/12/26 08:25:28;;;;;;;15.53;3.07;;;9.50;99.90;;;;;;5022453;28;38680;-81
2023/12/26 08:27:58;;;;;;;21.20;2.37;;;9.40;99.90;;;;;;5018350;28;38208;-81
2023/12/26 08:31:00;;;;;;;21.87;2.87;;;9.40;99.90;;;;;;4993830;28;39172;-82
2023/12/26 08:33:35;;;;;;;21.40;3.30;;;9.40;99.90;;;;;;4973454;28;38087;-81
2023/12/26 08:36:04;;;;;;;20.33;2.67;;;9.40;99.90;;;;;;5014814;28;37785;-81
2023/12/26 08:38:36;;;;;;;18.47;3.10;;;9.40;99.90;;;;;;5026834;28;48384;-82
2023/12/26 08:41:05;;;;;;;22.13;3.60;;;9.40;99.90;;;;;;5029894;28;38842;-81
2023/12/26 08:43:37;;;;;;;21.57;2.70;;;9.40;99.90;;;;;;5021022;28;49180;-82
2023/12/26 08:46:14;;;;;;;16.38;2.47;;;9.40;99.90;;;;;;5010897;28;37310;-82
2023/12/26 08:48:45;;;;;;;18.30;2.80;;;9.40;99.90;;;;;;5008616;28;38961;-82
2023/12/26 08:51:19;;;;;;;20.53;3.70;;;9.50;99.90;;;;;;5029651;28;37712;-82
2023/12/26 08:53:49;;;;;;;31.00;4.10;;;9.50;99.90;;;;;;5017972;28;38424;-80
2023/12/26 08:56:16;;;;;;;14.33;2.50;;;9.50;99.90;;;;;;5025114;28;37749;-81
2023/12/26 08:58:43;;;;;;;19.10;3.60;;;9.50;99.90;;;;;;5037221;28;39188;-81
2023/12/26 09:01:10;;;;;;;19.33;3.73;;;9.50;99.90;;;;;;5022875;28;39015;-81
2023/12/26 09:03:37;;;;;;;16.33;2.57;;;9.50;99.90;;;;;;5016527;28;37100;-81
2023/12/26 09:06:04;;;;;;;22.10;3.33;;;9.50;99.90;;;;;;5012190;28;36375;-81
2023/12/26 09:08:31;;;;;;;17.43;2.80;;;9.50;99.90;;;;;;5084512;22;38369;-80
2023/12/26 09:10:57;;;;;;;19.87;2.87;;;9.50;99.90;;;;;;5006415;28;39150;-80
2023/12/26 09:13:26;;;;;;;20.53;3.20;;;9.50;99.90;;;;;;5009451;28;37345;-80
2023/12/26 09:15:52;;;;;;;18.20;2.83;;;9.50;99.90;;;;;;4989653;28;36525;-80
2023/12/26 09:18:18;;;;;;;23.80;3.63;;;9.50;99.90;;;;;;4992686;28;38951;-79
2023/12/26 09:20:44;;;;;;;27.17;4.07;;;9.50;99.90;;;;;;4985275;28;37126;-81
2023/12/26 09:23:13;;;;;;;17.53;3.00;;;9.50;99.90;;;;;;4990596;28;36924;-79
2023/12/26 09:25:43;;;;;;;18.17;3.70;;;9.50;99.90;;;;;;4996588;28;37191;-81
2023/12/26 09:28:09;;;;;;;19.13;2.30;;;9.60;99.90;;;;;;4996176;28;37836;-80
2023/12/26 09:30:36;;;;;;;14.43;2.40;;;9.70;99.90;;;;;;4986901;28;38613;-80
2023/12/26 09:33:03;;;;;;;21.47;2.77;;;9.70;99.90;;;;;;4985752;28;38354;-79
2023/12/26 09:35:29;;;;;;;14.03;2.10;;;9.80;99.90;;;;;;4986237;28;37224;-79
2023/12/26 09:37:56;;;;;;;20.87;3.00;;;9.80;99.90;;;;;;4981404;28;37673;-80
2023/12/26 09:40:22;;;;;;;21.80;3.23;;;9.80;99.90;;;;;;4985923;28;39498;-79
2023/12/26 09:42:51;;;;;;;17.07;3.23;;;9.90;99.90;;;;;;4999706;28;36864;-82
2023/12/26 09:45:31;;;;;;;19.37;2.73;;;9.80;99.90;;;;;;5009204;28;36892;-80
2023/12/26 09:47:58;;;;;;;17.83;2.40;;;9.90;99.90;;;;;;5014143;28;39318;-81
2023/12/26 09:50:25;;;;;;;17.40;2.27;;;10.00;99.90;;;;;;5011179;28;38652;-81
2023/12/26 09:53:00;;;;;;;17.23;2.90;;;10.00;99.90;;;;;;5012834;28;35215;-81
2023/12/26 09:55:28;;;;;;;17.40;2.57;;;10.10;99.80;;;;;;5014677;28;38778;-81
2023/12/26 09:57:58;;;;;;;17.70;2.30;;;10.10;97.30;;;;;;4991887;28;38977;-81
2023/12/26 10:00:28;;;;;;;18.93;2.70;;;10.10;97.70;;;;;;5005661;28;38593;-81
2023/12/26 10:03:00;;;;;;;18.30;3.17;;;10.10;96.90;;;;;;5002829;28;51243;-80
2023/12/26 10:05:53;;;;;;;16.07;2.70;;;10.20;96.30;;;;;;5012266;28;37299;-81
2023/12/26 10:08:20;;;;;;;15.80;2.90;;;10.10;95.80;;;;;;5004268;28;39889;-81
2023/12/26 10:10:52;;;;;;;17.87;2.47;;;10.20;95.80;;;;;;5013062;28;39869;-80
2023/12/26 10:13:45;;;;;;;12.90;2.35;;;10.20;93.30;;;;;;4998276;28;38218;-81
2023/12/26 10:16:11;;;;;;;23.40;3.07;;;10.30;93.30;;;;;;4993623;28;37672;-81
2023/12/26 10:18:39;;;;;;;19.27;2.97;;;10.30;93.80;;;;;;5015232;28;40238;-81
2023/12/26 10:21:05;;;;;;;25.27;3.50;;;10.30;92.50;;;;;;5014857;28;39698;-82
2023/12/26 10:23:32;;;;;;;16.03;3.30;;;10.40;88.20;;;;;;5015080;28;38019;-80
2023/12/26 10:25:59;;;;;;;17.90;3.20;;;10.40;86.40;;;;;;5013633;28;37760;-81
2023/12/26 10:28:26;;;;;;;18.83;3.17;;;10.40;86.40;;;;;;5025361;28;39194;-82
2023/12/26 10:30:52;;;;;;;18.53;2.40;;;10.40;85.40;;;;;;5009305;28;38251;-81
2023/12/26 10:33:28;;;;;;;20.60;3.47;;;10.50;88.00;;;;;;5013600;28;38015;-81
2023/12/26 10:36:08;;;;;;;18.00;2.97;;;10.50;89.10;;;;;;4998649;28;37703;-81
2023/12/26 10:38:34;;;;;;;24.63;2.90;;;10.50;92.90;;;;;;5009829;28;50113;-80
2023/12/26 10:41:06;;;;;;;16.73;3.17;;;10.50;89.60;;;;;;5030773;28;38463;-80
2023/12/26 10:43:34;;;;;;;26.48;3.92;;;10.60;91.40;;;;;;5015241;28;48408;-80
2023/12/26 10:46:08;;;;;;;13.60;3.20;;;10.80;74.40;;;;;;5016991;28;36649;-80
2023/12/26 10:48:36;;;;;;;20.47;3.60;;;11.10;61.10;;;;;;5021930;28;47275;-81
2023/12/26 10:51:02;;;;;;;17.13;2.63;;;11.20;58.80;;;;;;5008538;28;38999;-80
2023/12/26 10:53:38;;;;;;;22.23;2.50;;;11.30;49.30;;;;;;5016272;28;37216;-81
2023/12/26 10:56:12;;;;;;;16.83;2.60;;;11.30;36.40;;;;;;5008661;28;37894;-80
2023/12/26 10:58:44;;;;;;;20.33;2.90;;;11.30;43.50;;;;;;5008899;28;38643;-80
2023/12/26 13:53:27;;;;;;;;;;;;;;;;;;;;;
2023/12/26 13:56:35;;;;;;;8.00;1.88;;;10.30;1.00;;;;;;4978533;28;48988;-82
2023/12/26 13:59:47;;;;;;;10.50;1.97;;;10.30;1.00;;;;;;5000051;28;50016;-81
2023/12/26 14:02:56;;;;;;;8.93;2.23;;;10.30;1.00;;;;;;5026962;28;49256;-80
2023/12/26 14:13:00;;;;;;;6.97;1.60;;;10.30;6.80;;;;;;5004357;28;49881;-81
2023/12/26 14:19:40;;;;;;;7.33;1.60;;;10.30;1.00;;;;;;4977384;28;49154;-79
2023/12/26 14:22:43;;;;;;;6.83;1.70;;;10.30;1.00;;;;;;5008255;28;37733;-79
2023/12/26 14:28:33;;;;;;;10.23;1.80;;;10.30;8.40;;;;;;4893446;28;49072;-80
2023/12/26 14:34:59;;;;;;;10.80;1.73;;;10.30;16.40;;;;;;4966373;28;49321;-82
2023/12/26 14:37:59;;;;;;;11.20;1.60;;;10.20;14.70;;;;;;4892805;29;36889;-82
2023/12/26 14:41:00;;;;;;;;;;;;;;;;;;;;;
2023/12/26 14:43:58;;;;;;;7.77;1.90;;;10.30;14.10;;;;;;5036430;28;48336;-81
2023/12/26 14:46:38;;;;;;;9.70;1.50;;;10.20;4.90;;;;;;5029732;28;39588;-80
2023/12/26 14:53:33;;;;;;;14.97;1.90;;;10.10;7.50;;;;;;4908544;28;49779;-80
2023/12/26 14:56:12;;;;;;;7.43;1.60;;;10.10;11.90;;;;;;4945909;28;47409;-81
2023/12/26 14:58:41;;;;;;;12.13;1.63;;;10.10;21.80;;;;;;4925259;28;47943;-83
2023/12/26 15:01:31;;;;;;;11.33;2.07;;;10.20;29.20;;;;;;4934215;28;38442;-81
2023/12/26 15:10:41;;;;;;;10.73;1.60;;;10.10;44.00;;;;;;5009459;26;20055;-79
2023/12/26 15:13:08;;;;;;;17.70;2.97;;;10.00;46.80;;;;;;5021248;28;36089;-79
2023/12/26 15:15:35;;;;;;;18.33;3.07;;;10.00;58.40;;;;;;5017777;28;37936;-80
2023/12/26 15:18:02;;;;;;;10.87;2.47;;;10.00;61.20;;;;;;5021602;28;38610;-79
2023/12/26 15:20:29;;;;;;;12.50;1.90;;;10.00;65.10;;;;;;5023158;28;39700;-80
2023/12/26 15:23:04;;;;;;;11.23;2.43;;;9.90;71.00;;;;;;5025472;28;37915;-81
2023/12/26 15:25:33;;;;;;;12.87;1.83;;;9.90;73.90;;;;;;5021319;28;48497;-80
2023/12/26 15:27:59;;;;;;;9.67;2.03;;;9.90;78.00;;;;;;5021005;28;38047;-80
2023/12/26 15:30:28;;;;;;;15.80;2.37;;;9.90;83.90;;;;;;5025871;28;37837;-81
2023/12/26 15:32:58;;;;;;;11.03;2.03;;;9.90;85.70;;;;;;5026815;28;37521;-81
2023/12/26 15:35:32;;;;;;;10.63;1.77;;;9.90;88.60;;;;;;5025947;28;40021;-81
2023/12/26 15:38:00;;;;;;;12.60;2.13;;;9.90;88.50;;;;;;5020503;28;38646;-80
2023/12/26 15:40:30;;;;;;;12.73;2.33;;;9.90;86.80;;;;;;5024291;28;37350;-80
2023/12/26 15:42:56;;;;;;;10.70;2.47;;;9.90;91.40;;;;;;5037303;28;36752;-81
2023/12/26 15:45:26;;;;;;;16.37;2.90;;;9.90;92.50;;;;;;5035785;28;38480;-80
2023/12/26 15:47:55;;;;;;;17.47;2.10;;;9.90;92.40;;;;;;5026812;28;37746;-80
2023/12/26 15:50:23;;;;;;;12.83;2.03;;;9.90;92.00;;;;;;5029147;28;38361;-81
2023/12/26 15:52:50;;;;;;;10.73;3.17;;;9.80;92.50;;;;;;5028737;28;37397;-80
2023/12/26 15:55:17;;;;;;;12.83;2.80;;;9.80;92.20;;;;;;5019421;28;39315;-80
2023/12/26 15:57:44;;;;;;;14.43;2.70;;;9.70;94.90;;;;;;5029218;28;39450;-81
2023/12/26 16:00:12;;;;;;;12.13;3.07;;;9.60;96.40;;;;;;5016216;28;35998;-79
2023/12/26 16:02:38;;;;;;;12.03;2.70;;;9.60;99.40;;;;;;5014138;28;37161;-80
2023/12/26 16:05:04;;;;;;;12.73;2.50;;;9.50;99.90;;;;;;5022186;28;39857;-80
2023/12/26 16:07:30;;;;;;;11.20;2.03;;;9.50;99.90;;;;;;5026015;28;47760;-79
2023/12/26 16:09:58;;;;;;;12.43;2.70;;;9.50;99.90;;;;;;5014374;28;37320;-80
2023/12/26 16:12:24;;;;;;;11.77;2.50;;;9.40;99.90;;;;;;4999774;28;36041;-80
2023/12/26 16:14:51;;;;;;;11.77;2.40;;;9.40;99.90;;;;;;5016356;28;38397;-80
2023/12/26 16:17:17;;;;;;;12.00;2.20;;;9.50;99.20;;;;;;5045459;28;37491;-80
2023/12/26 16:19:43;;;;;;;10.43;2.10;;;9.50;93.20;;;;;;5016706;28;38610;-80
2023/12/26 16:22:13;;;;;;;10.57;2.53;;;9.60;89.80;;;;;;5015413;28;37233;-80
2023/12/26 16:24:39;;;;;;;15.50;2.60;;;9.60;87.30;;;;;;5014276;28;37883;-79
2023/12/26 16:27:06;;;;;;;9.57;2.20;;;9.60;86.00;;;;;;5023471;28;38548;-79
2023/12/26 16:29:32;;;;;;;13.07;3.23;;;9.60;86.10;;;;;;5028813;28;36823;-79
2023/12/26 16:31:59;;;;;;;17.57;4.07;;;9.60;81.30;;;;;;5023398;28;36820;-80
2023/12/26 16:34:27;;;;;;;7.27;2.10;;;9.60;85.00;;;;;;5028226;28;38801;-80
2023/12/26 16:36:54;;;;;;;10.03;2.63;;;9.60;87.30;;;;;;5028108;28;38954;-80
2023/12/26 16:39:21;;;;;;;12.60;2.27;;;9.50;91.20;;;;;;5025433;28;37019;-79
2023/12/26 16:42:09;;;;;;;13.10;2.83;;;9.50;90.50;;;;;;5025510;28;36336;-80
2023/12/26 16:44:43;;;;;;;8.93;2.33;;;9.50;90.80;;;;;;5018745;28;47346;-80
2023/12/26 16:47:10;;;;;;;8.87;2.20;;;9.50;85.80;;;;;;5025662;28;38548;-80
2023/12/26 16:49:41;;;;;;;9.97;2.00;;;9.50;82.60;;;;;;5016729;28;38127;-80
2023/12/26 16:52:09;;;;;;;10.87;2.63;;;9.50;83.90;;;;;;5016975;28;36377;-80
2023/12/26 16:54:37;;;;;;;14.77;4.97;;;9.60;89.60;;;;;;5021746;28;39516;-80
2023/12/26 16:57:04;;;;;;;15.50;4.40;;;9.60;86.50;;;;;;5020412;28;38501;-81
2023/12/26 16:59:31;;;;;;;13.93;5.00;;;9.60;89.50;;;;;;5025814;28;38245;-80
2023/12/26 17:01:58;;;;;;;11.17;4.00;;;9.50;84.20;;;;;;5021913;28;36692;-80
2023/12/26 17:04:25;;;;;;;13.37;4.37;;;9.50;88.00;;;;;;5041039;28;38078;-80
2023/12/26 17:06:51;;;;;;;14.27;3.07;;;9.50;86.80;;;;;;5021560;28;38937;-80
2023/12/26 17:09:21;;;;;;;9.63;2.57;;;9.50;82.10;;;;;;5037710;28;37204;-81